CDT,Max TemperatureF,Mean TemperatureF,Min TemperatureF,Max Dew PointF,MeanDew PointF,Min DewpointF,Max Humidity, Mean Humidity, Min Humidity, Max Sea Level PressureIn, Mean Sea Level PressureIn, Min Sea Level PressureIn, Max VisibilityMiles, Mean VisibilityMiles, Min VisibilityMiles, Max Wind SpeedMPH, Mean Wind SpeedMPH, Max Gust SpeedMPH,PrecipitationIn, CloudCover, Events, WindDirDegrees
2012-9-1,91,78,66,69,66,63,97,70,40,29.99,29.94,29.89,10,10,10,12,5,,0.00,0,,24
2012-9-2,92,74,57,68,62,57,100,69,38,29.95,29.91,29.83,10,9,2,9,2,,0.00,0,Rain,128
2012-9-3,85,76,66,73,70,65,99,79,63,29.91,29.85,29.80,10,10,10,10,5,,0.00,2,Rain,87
2012-9-4,97,80,62,71,68,63,100,75,34,29.85,29.80,29.68,10,10,4,14,4,20,0.00,0,Rain,141
2012-9-5,86,75,58,64,55,46,85,55,25,29.93,29.82,29.68,10,10,10,18,7,28,0.00,0,,337
2012-9-6,90,68,47,65,52,44,90,61,26,29.99,29.89,29.75,10,9,5,16,4,,0.00,0,,133
2012-9-7,75,68,62,66,56,44,84,65,41,30.09,29.91,29.70,10,10,10,17,10,25,0.00,1,Rain,340
2012-9-8,84,64,45,46,43,38,87,62,20,30.17,30.09,29.93,10,8,4,18,6,25,0.00,0,,301
2012-9-9,77,63,50,50,45,42,84,56,33,30.22,30.14,30.07,10,10,10,12,6,20,0.00,0,,9
2012-9-10,86,65,44,53,48,43,97,58,27,30.12,30.01,29.89,10,10,10,21,7,26,0.00,0,,151
2012-9-11,94,76,57,53,51,48,78,45,21,29.91,29.86,29.80,10,10,10,24,13,30,0.00,1,,153
2012-9-12,77,66,55,64,55,42,100,81,42,30.27,30.12,29.86,10,6,2,22,11,32,1.60,7,Rain-Thunderstorm,8
2012-9-13,67,58,50,54,50,47,94,82,50,30.43,30.34,30.26,10,9,4,20,9,24,0.35,4,Rain,13
2012-9-14,78,60,42,51,45,40,99,65,26,30.38,30.33,30.26,10,10,10,13,3,,0.00,0,,180
2012-9-15,78,60,43,57,51,43,99,75,41,30.28,30.19,30.07,10,10,9,12,2,20,0.00,0,,162
2012-9-16,75,62,50,64,57,50,100,91,56,30.07,30.01,29.90,10,7,0,4,0,,0.00,4,Fog,163
2012-9-17,65,56,48,63,55,40,100,93,48,30.06,29.94,29.89,10,6,0,13,1,22,0.03,4,Fog-Rain,342
2012-9-18,69,53,37,44,38,34,95,56,28,30.14,30.05,29.94,10,8,2,8,4,,0.00,0,,306
2012-9-19,91,66,44,51,43,33,91,49,20,29.98,29.85,29.73,10,10,10,22,9,33,0.00,0,,121
2012-9-20,73,58,45,49,41,32,80,53,26,30.06,29.99,29.94,10,10,10,10,4,17,0.00,1,,315
2012-9-21,75,60,46,49,41,32,81,54,21,29.92,29.86,29.81,10,10,10,21,6,30,0.00,0,Rain,286
2012-9-22,63,50,34,42,31,26,86,49,25,30.30,30.21,29.94,10,10,10,18,8,25,0.00,0,,340
2012-9-23,68,50,31,41,33,30,100,78,24,30.38,30.30,30.21,10,6,0,5,0,,0.00,0,Fog,156
2012-9-24,73,57,41,52,43,36,89,60,31,30.20,30.01,29.82,10,9,2,12,3,,0.02,2,,125
2012-9-25,83,65,47,52,49,46,99,64,27,29.88,29.83,29.79,10,10,10,7,2,,0.00,1,,318
2012-9-26,78,62,43,43,39,31,84,48,18,30.20,30.08,29.87,10,10,10,10,6,,0.00,2,,29
2012-9-27,75,56,36,41,35,25,90,54,16,30.23,30.16,30.11,10,10,10,7,1,,0.00,0,,360
2012-9-28,75,55,35,52,42,34,100,77,32,30.22,30.16,30.10,10,8,0,7,1,,0.00,0,Fog-Rain,188
2012-9-29,79,58,37,49,42,37,100,78,26,30.20,30.13,30.03,10,7,0,6,0,,0.00,0,Fog,313
2012-9-30,78,60,42,52,46,42,99,68,28,30.03,29.96,29.89,10,10,6,7,2,,0.00,0,,300